Flight Track Log - Related Links

Times and Time Zones

All times are in EDT time to prevent confusion due to time zone crossing. See the F-GSPR flight status page for this flight to view local times or setup timezone preferences in your user account.

Time Position Orientation Groundspeed Altitude Reporting Facility
EDT Latitude Longitude Course Direction KTS MPH feet Rate Location/Type
Tue 10:57:00 AM 49.4871 0.4618 290° West  Level FlightAware Approximate
Tue 10:58:00 AM 49.5195 0.2997 284° West  Level FlightAware Approximate
Tue 10:59:00 AM 49.5547 0.1384 293° West  Level FlightAware Approximate
Tue 11:00:00 AM 49.5962 -0.0199 290° West  Level FlightAware Approximate
Tue 11:03:00 AM 47.5585 -2.4205 290° West  Level Estimated
Tue 11:04:00 AM 47.5961 -2.5749 290° West  Level Estimated
Tue 11:05:00 AM 47.6335 -2.7295 290° West  Level Estimated
Tue 11:05:08 AM 49.0228 2.5524 62° Northeast 159 183 400  Level FlightAware ADS-B
Tue 11:05:23 AM 49.0238 2.5692 85° East 157 181 1,100 2,800 Climbing FlightAware ADS-B
Tue 11:05:38 AM 49.0246 2.5856 86° East 157 181 1,800 2,400 Climbing FlightAware ADS-B
Tue 11:05:53 AM 49.0253 2.6023 86° East 160 184 2,300 1,800 Climbing FlightAware ADS-B
Tue 11:06:08 AM 49.0261 2.6203 86° East 162 186 2,700 1,862 Climbing FlightAware ADS-B
Tue 11:06:22 AM 49.0269 2.6359 86° East 161 185 3,200 1,800 Climbing FlightAware ADS-B
Tue 11:06:28 AM 49.0272 2.6423 86° East 165 190 3,300 1,125 Climbing FlightAware ADS-B
Tue 11:06:38 AM 49.0279 2.6548 85° East 178 205 3,500 857 Climbing FlightAware ADS-B
Tue 11:06:49 AM 49.0285 2.6684 86° East 189 217 3,600 889 Climbing FlightAware ADS-B
Tue 11:07:05 AM 49.0299 2.6907 85° East 204 235 3,900 1,154 Climbing FlightAware ADS-B
Tue 11:07:15 AM 49.0309 2.7058 84° East 216 249 4,100 720 Climbing FlightAware ADS-B
Tue 11:07:30 AM 49.0325 2.7299 84° East 236 272 4,200 947 Climbing FlightAware ADS-B
Tue 11:07:34 AM 49.0333 2.7372 81° East 239 275 4,400 1,500 Climbing FlightAware ADS-B
Tue 11:07:38 AM 49.0343 2.7424 73° East 240 276 4,400 1,500 Level FlightAware ADS-B
Tue 11:07:42 AM 49.0359 2.7483 68° East 240 276 4,600 3,000 Climbing FlightAware ADS-B
Tue 11:07:46 AM 49.0383 2.7541 58° Northeast 239 275 4,800 2,571 Climbing FlightAware ADS-B
Tue 11:07:49 AM 49.0405 2.7582 51° Northeast 240 276 4,900 2,000 Climbing FlightAware ADS-B
Tue 11:07:52 AM 49.0429 2.7620 46° Northeast 243 280 5,000 2,000 Climbing FlightAware ADS-B
Tue 11:07:55 AM 49.0461 2.7659 39° Northeast 247 284 5,100 1,714 Climbing FlightAware ADS-B
Tue 11:07:59 AM 49.0494 2.7689 31° Northeast 249 287 5,200 1,500 Climbing FlightAware ADS-B
Tue 11:08:03 AM 49.0534 2.7717 25° Northeast 252 290 5,300 1,333 Climbing FlightAware ADS-B
Tue 11:08:08 AM 49.0594 2.7743 16° North 259 298 5,400 1,333 Climbing FlightAware ADS-B
Tue 11:08:12 AM 49.0646 2.7754 North 268 308 5,500 1,333 Climbing FlightAware ADS-B
Tue 11:08:17 AM 49.0708 2.7751 358° North 275 316 5,600 2,000 Climbing FlightAware ADS-B
Tue 11:08:21 AM 49.0764 2.7733 349° North 278 320 5,800 2,000 Climbing FlightAware ADS-B
Tue 11:08:26 AM 49.0818 2.7705 341° North 281 323 5,900 2,538 Climbing FlightAware ADS-B
Tue 11:08:47 AM 49.1016 2.7414 316° Northwest 281 323 6,900 2,889 Climbing FlightAware ADS-B
Tue 11:08:53 AM 49.1042 2.7312 291° West 284 327 7,200 2,727 Climbing FlightAware ADS-B
Tue 11:08:58 AM 49.1056 2.7214 282° West 284 327 7,400 2,250 Climbing FlightAware ADS-B
Tue 11:09:01 AM 49.1061 2.7143 276° West 285 328 7,500 2,250 Climbing FlightAware ADS-B
Tue 11:09:06 AM 49.1061 2.7044 270° West 287 330 7,700 2,182 Climbing FlightAware ADS-B
Tue 11:09:12 AM 49.1055 2.6931 265° West 289 333 7,900 2,118 Climbing FlightAware ADS-B
Tue 11:09:23 AM 49.1039 2.6697 264° West 290 334 8,300 2,538 Climbing FlightAware ADS-B
Tue 11:09:38 AM 49.0999 2.6415 258° West 288 331 9,000 2,609 Climbing FlightAware ADS-B
Tue 11:09:46 AM 49.0968 2.6253 254° West 289 333 9,300 2,250 Climbing FlightAware ADS-B
Tue 11:10:02 AM 49.0897 2.5944 251° West 288 331 9,900 1,915 Climbing FlightAware ADS-B
Tue 11:10:33 AM 49.0732 2.5361 247° West 301 346 10,800 1,645 Climbing FlightAware ADS-B
Tue 11:11:04 AM 49.0550 2.4747 246° West 321 369 11,600 1,644 Climbing FlightAware ADS-B
Tue 11:11:46 AM 49.0291 2.3840 247° West 353 406 12,800 1,920 Climbing FlightAware ADS-B
Tue 11:11:54 AM 49.0249 2.3627 253° West 355 409 13,200 3,000 Climbing FlightAware ADS-B
Tue 11:12:06 AM 49.0223 2.3345 262° West 356 410 13,800 2,400 Climbing FlightAware ADS-B
Tue 11:12:34 AM 49.0218 2.2609 269° West 373 429 14,800 2,339 Climbing FlightAware ADS-B
Tue 11:13:05 AM 49.0242 2.1809 273° West 378 435 16,100 490 Climbing FlightAware ADS-B
Tue 11:13:23 AM 49.0249 2.1332 273° West 386 444 15,200 2,250 Descending FlightAware UK
Tue 11:13:37 AM 49.0274 2.0954 273° West 385 443 17,300 4,636 Climbing FlightAware ADS-B
Tue 11:14:07 AM 49.0299 2.0127 273° West 388 447 18,600 522 Climbing FlightAware ADS-B
Tue 11:14:23 AM 49.0312 1.9716 273° West 402 463 17,700 2,323 Descending FlightAware UK
Tue 11:14:38 AM 49.0323 1.9282 273° West 392 451 19,800 2,000 Climbing FlightAware ADS-B
Tue 11:14:59 AM 49.0341 1.8727 273° West 406 467 18,900 2,000 Descending FlightAware UK
Tue 11:15:17 AM 49.0355 1.8196 273° West 401 461 21,100 3,875 Climbing FlightAware ADS-B
Tue 11:15:47 AM 49.0379 1.7330 272° West 408 470 22,000 1,770 Climbing FlightAware ADS-B
Tue 11:16:18 AM 49.0404 1.6448 273° West 415 478 22,900 305 Climbing FlightAware ADS-B
Tue 11:16:46 AM 49.0426 1.5619 273° West 424 488 22,300 1,846 Descending FlightAware UK
Tue 11:16:57 AM 49.0435 1.5289 273° West 422 486 24,100 1,571 Climbing FlightAware ADS-B
Tue 11:17:28 AM 49.0458 1.4372 273° West 434 499 23,400  Descending FlightAware UK
Tue 11:17:52 AM 49.0476 1.3635 272° West 438 504 24,100 1,667 Climbing FlightAware UK
Tue 11:18:40 AM 49.0510 1.2166 272° West 446 513 25,400 1,545 Climbing FlightAware UK
Tue 11:18:58 AM 49.0522 1.1601 272° West 448 516 25,800 1,429 Climbing FlightAware UK
Tue 11:19:22 AM 49.0541 1.0844 272° West 452 520 26,400 1,455 Climbing FlightAware UK
Tue 11:20:04 AM 49.0573 0.9504 272° West 458 527 27,400 1,385 Climbing FlightAware UK
Tue 11:20:40 AM 49.0597 0.8329 272° West 464 534 28,200 1,333 Climbing FlightAware UK
Tue 11:20:58 AM 49.0609 0.7738 272° West 466 536 28,600 1,286 Climbing FlightAware UK
Tue 11:21:22 AM 49.0625 0.6951 272° West 470 541 29,100 1,125 Climbing FlightAware UK
Tue 11:22:34 AM 49.0669 0.4519 272° West 476 548 30,400 779 Climbing FlightAware UK
Tue 11:23:33 AM 49.0699 0.2462 271° West 484 557 30,800 701 Climbing FlightAware UK
Tue 11:23:51 AM 49.0707 0.1836 271° West 488 562 31,300 2,000 Climbing FlightAware UK
Tue 11:24:15 AM 49.0726 0.1023 272° West 482 555 32,200 1,857 Climbing FlightAware UK
Tue 11:24:33 AM 49.0811 0.0421 282° West 486 559 32,600 1,889 Climbing FlightAware UK
Tue 11:25:09 AM 49.0965 -0.0761 281° West 478 550 33,900 1,800 Climbing FlightAware UK
Tue 11:25:33 AM 49.1057 -0.1544 280° West 474 545 34,400 714 Climbing FlightAware UK
Tue 11:25:51 AM 49.1116 -0.2130 279° West 472 543 34,400  Level FlightAware UK
Tue 11:26:09 AM 49.1177 -0.2718 279° West 470 541 34,400  Level FlightAware UK
Tue 11:26:27 AM 49.1247 -0.3298 280° West 472 543 34,400  Level FlightAware UK
Tue 11:26:57 AM 49.1389 -0.4269 283° West 472 543 34,400  Level FlightAware UK
Tue 11:27:39 AM 49.1575 -0.5629 282° West 470 541 34,400 48 Level FlightAware UK
Tue 11:29:02 AM 49.1928 -0.8369 281° West 472 543 34,500 59 Climbing FlightAware UK
Tue 11:29:20 AM 49.2003 -0.8960 281° West 472 543 34,500  Level FlightAware UK
Tue 11:29:38 AM 49.2078 -0.9549 281° West 476 548 34,500  Level FlightAware UK
Tue 11:31:44 AM 49.2603 -1.3674 281° West 478 550 34,500  Level FlightAware UK
Tue 11:32:02 AM 49.2676 -1.4260 281° West 476 548 34,500  Level FlightAware UK
Tue 11:32:26 AM 49.2771 -1.5035 281° West 474 545 34,500 -125 Level FlightAware UK
Tue 11:32:50 AM 49.2871 -1.5817 281° West 476 548 34,400 -143 Descending FlightAware UK
Tue 11:33:08 AM 49.2945 -1.6402 281° West 474 545 34,400  Level FlightAware UK
Tue 11:33:26 AM 49.3018 -1.6987 281° West 474 545 34,400 167 Level FlightAware UK
Tue 11:33:44 AM 49.3090 -1.7574 281° West 474 545 34,500 143 Climbing FlightAware UK
Tue 11:34:08 AM 49.3183 -1.8351 280° West 474 545 34,500  Level FlightAware UK
Tue 11:34:26 AM 49.3254 -1.8942 280° West 476 548 34,500  Level FlightAware UK
Tue 11:34:56 AM 49.3370 -1.9937 280° West 476 548 34,500 -111 Level FlightAware UK
Tue 11:35:20 AM 49.3463 -2.0723 280° West 474 545 34,400 -100 Descending FlightAware UK
Tue 11:35:56 AM 49.3604 -2.1902 280° West 480 552 34,400  Level FlightAware UK
Tue 11:36:38 AM 49.3767 -2.3271 280° West 476 548 34,400  Level FlightAware UK
Tue 11:37:19 AM 49.3918 -2.4622 280° West 476 548 34,400  Level FlightAware UK
Tue 11:37:37 AM 49.3985 -2.5213 280° West 476 548 34,400  Level FlightAware UK
Tue 11:38:25 AM 49.4161 -2.6765 280° West 478 550 34,400 91 Level FlightAware UK
Tue 11:38:43 AM 49.4228 -2.7348 280° West 472 543 34,500 167 Climbing FlightAware UK
Tue 11:39:01 AM 49.4293 -2.7932 280° West 474 545 34,500  Level FlightAware UK
Tue 11:39:19 AM 49.4358 -2.8515 280° West 476 548 34,500  Level FlightAware UK
Tue 11:40:01 AM 49.4510 -2.9870 280° West 474 545 34,500  Level FlightAware UK
Tue 11:40:19 AM 49.4573 -3.0451 280° West 474 545 34,500  Level FlightAware UK
Tue 11:40:43 AM 49.4657 -3.1227 279° West 472 543 34,500  Level FlightAware UK
Tue 11:41:07 AM 49.4739 -3.1996 279° West 474 545 34,500  Level FlightAware UK
Tue 11:41:31 AM 49.4823 -3.2771 279° West 474 545 34,500  Level FlightAware UK
Tue 11:41:55 AM 49.4906 -3.3548 279° West 474 545 34,500  Level FlightAware UK
Tue 11:42:13 AM 49.4967 -3.4125 279° West 476 548 34,500  Level FlightAware UK
Tue 11:42:43 AM 49.5072 -3.5097 280° West 474 545 34,500  Level FlightAware UK
Tue 11:43:01 AM 49.5133 -3.5679 279° West 474 545 34,500  Level FlightAware UK
Tue 11:43:19 AM 49.5193 -3.6261 279° West 474 545 34,500  Level FlightAware UK
Tue 11:43:43 AM 49.5273 -3.7036 279° West 474 545 34,500  Level FlightAware UK
Tue 11:44:07 AM 49.5352 -3.7812 279° West 474 545 34,500  Level FlightAware UK
Tue 11:44:25 AM 49.5418 -3.8391 280° West 474 545 34,500  Level FlightAware UK
Tue 11:44:43 AM 49.5505 -3.8963 283° West 476 548 34,500 -143 Level FlightAware UK
Tue 11:45:07 AM 49.5612 -3.9733 282° West 476 548 34,400 -143 Descending FlightAware UK
Tue 11:45:25 AM 49.5688 -4.0308 281° West 474 545 34,400 167 Level FlightAware UK
Tue 11:45:43 AM 49.5762 -4.0884 281° West 474 545 34,500 171 Climbing FlightAware UK
Tue 11:46:00 AM 49.5833 -4.1453 281° West 474 545 34,500 -113 Level FlightAware UK
Tue 11:46:36 AM 49.5976 -4.2603 281° West 474 545 34,400 -91 Descending FlightAware UK
Tue 11:47:06 AM 49.6094 -4.3564 281° West 474 545 34,400 125 Level FlightAware UK
Tue 11:47:24 AM 49.6164 -4.4140 281° West 474 545 34,500 83 Climbing FlightAware UK
Tue 11:48:18 AM 49.6375 -4.5868 281° West 474 545 34,500  Level FlightAware UK
Tue 11:48:36 AM 49.6445 -4.6445 281° West 472 543 34,500  Level FlightAware UK
Tue 11:48:54 AM 49.6514 -4.7022 281° West 470 541 34,500  Level FlightAware UK
Tue 11:49:12 AM 49.6584 -4.7600 281° West 470 541 34,500  Level FlightAware UK
Tue 11:49:30 AM 49.6654 -4.8172 281° West 472 543 34,500  Level FlightAware UK
Tue 11:49:48 AM 49.6723 -4.8753 280° West 474 545 34,500  Level FlightAware UK
Tue 11:50:06 AM 49.6793 -4.9336 280° West 474 545 34,500  Level FlightAware UK
Tue 11:50:24 AM 49.6863 -4.9920 281° West 474 545 34,500  Level FlightAware UK
Tue 11:50:42 AM 49.6932 -5.0504 280° West 474 545 34,500  Level FlightAware UK
Tue 11:51:00 AM 49.6999 -5.1088 280° West 474 545 34,500  Level FlightAware UK
Tue 11:51:18 AM 49.7067 -5.1672 280° West 474 545 34,500  Level FlightAware UK
Tue 11:51:36 AM 49.7135 -5.2257 280° West 476 548 34,500  Level FlightAware UK
Tue 11:51:54 AM 49.7202 -5.2843 280° West 476 548 34,500  Level FlightAware UK
Tue 11:52:18 AM 49.7291 -5.3624 280° West 478 550 34,500  Level FlightAware UK
Tue 11:52:36 AM 49.7357 -5.4208 280° West 476 548 34,500  Level FlightAware UK
Tue 11:52:54 AM 49.7423 -5.4789 280° West 476 548 34,500  Level FlightAware UK
Tue 11:53:12 AM 49.7490 -5.5369 280° West 476 548 34,500  Level FlightAware UK
Tue 11:53:30 AM 49.7555 -5.5948 280° West 474 545 34,500  Level FlightAware UK
Tue 11:53:48 AM 49.7619 -5.6525 280° West 474 545 34,500  Level FlightAware UK
Tue 11:54:06 AM 49.7684 -5.7101 280° West 476 548 34,500  Level FlightAware UK
Tue 11:54:24 AM 49.7749 -5.7678 280° West 476 548 34,500  Level FlightAware UK
Tue 11:54:42 AM 49.7812 -5.8254 280° West 476 548 34,500  Level FlightAware UK
Tue 11:55:00 AM 49.7876 -5.8831 280° West 474 545 34,500  Level FlightAware UK
Tue 11:55:18 AM 49.7938 -5.9399 280° West 474 545 34,500  Level FlightAware UK
Tue 11:55:36 AM 49.8000 -5.9974 280° West 472 543 34,500  Level FlightAware UK
Tue 11:55:54 AM 49.8064 -6.0548 280° West 472 543 34,500  Level FlightAware UK
Tue 11:56:12 AM 49.8126 -6.1122 280° West 472 543 34,500  Level FlightAware UK
Tue 11:56:30 AM 49.8187 -6.1696 279° West 472 543 34,500  Level FlightAware UK
Tue 11:56:48 AM 49.8249 -6.2272 279° West 472 543 34,500  Level FlightAware UK
Tue 11:57:06 AM 49.8310 -6.2848 279° West 474 545 34,500  Level FlightAware UK
Tue 11:57:24 AM 49.8370 -6.3425 279° West 474 545 34,500  Level FlightAware UK
Tue 11:57:42 AM 49.8431 -6.4002 279° West 474 545 34,500  Level FlightAware UK
Tue 11:58:00 AM 49.8491 -6.4578 279° West 474 545 34,500  Level FlightAware UK
Tue 11:58:18 AM 49.8551 -6.5155 279° West 474 545 34,500  Level FlightAware UK
Tue 11:58:36 AM 49.8613 -6.5731 279° West 476 548 34,500  Level FlightAware UK
Tue 11:58:54 AM 49.8672 -6.6307 279° West 474 545 34,500  Level FlightAware UK
Tue 11:59:12 AM 49.8731 -6.6883 279° West 474 545 34,500  Level FlightAware UK
Tue 11:59:30 AM 49.8790 -6.7459 279° West 476 548 34,500  Level FlightAware UK
Tue 11:59:48 AM 49.8848 -6.8036 279° West 474 545 34,500  Level FlightAware UK
Tue 12:00:06 PM 49.8905 -6.8611 279° West 476 548 34,500  Level FlightAware UK
Tue 12:00:24 PM 49.8964 -6.9186 279° West 476 548 34,500  Level FlightAware UK
Tue 12:00:42 PM 49.9021 -6.9760 279° West 476 548 34,500  Level FlightAware UK
Tue 12:01:00 PM 49.9077 -7.0328 279° West 476 548 34,500  Level FlightAware UK
Tue 12:01:18 PM 49.9136 -7.0900 279° West 476 548 34,500  Level FlightAware UK
Tue 12:01:36 PM 49.9191 -7.1473 279° West 476 548 34,500  Level FlightAware UK
Tue 12:02:00 PM 49.9207 -7.2233 272° West 476 548 34,500  Level FlightAware UK
Tue 12:02:18 PM 49.9187 -7.2806 267° West 474 545 34,500  Level FlightAware UK
Tue 12:02:36 PM 49.9134 -7.3377 262° West 474 545 34,500  Level FlightAware UK
Tue 12:02:54 PM 49.9084 -7.3945 262° West 472 543 34,500  Level FlightAware UK
Tue 12:03:12 PM 49.9035 -7.4515 262° West 472 543 34,500  Level FlightAware UK
Tue 12:03:30 PM 49.8984 -7.5083 262° West 472 543 34,500  Level FlightAware UK
Tue 12:03:48 PM 49.8933 -7.5651 262° West 472 543 34,500  Level FlightAware UK
Tue 12:04:06 PM 49.8882 -7.6220 262° West 474 545 34,500  Level FlightAware UK
Tue 12:04:24 PM 49.8830 -7.6788 262° West 474 545 34,500  Level FlightAware UK
Tue 12:04:42 PM 49.8776 -7.7356 262° West 472 543 34,500  Level FlightAware UK
Tue 12:05:00 PM 49.8723 -7.7923 262° West 472 543 34,500  Level FlightAware UK
Tue 12:05:18 PM 49.8670 -7.8491 262° West 472 543 34,500  Level FlightAware UK
Tue 12:05:36 PM 49.8616 -7.9058 262° West 472 543 34,500  Level FlightAware UK
Tue 12:05:54 PM 49.8561 -7.9625 262° West 472 543 34,500  Level FlightAware UK
Tue 12:06:12 PM 49.8506 -8.0193 261° West 472 543 34,500  Level FlightAware UK
Tue 12:06:30 PM 49.8453 -8.0760 262° West 472 543 34,500  Level FlightAware UK
Tue 12:06:48 PM 49.8405 -8.1323 262° West 472 543 34,500  Level FlightAware UK
Tue 12:07:06 PM 49.8356 -8.1892 262° West 474 545 34,500  Level FlightAware UK
Tue 12:07:24 PM 49.8305 -8.2462 262° West 474 545 34,500  Level FlightAware UK
Tue 12:07:42 PM 49.8252 -8.3032 262° West 474 545 34,500  Level FlightAware UK
Tue 12:08:00 PM 49.8199 -8.3601 262° West 472 543 34,500  Level FlightAware UK
Tue 12:08:18 PM 49.8145 -8.4170 262° West 474 545 34,500  Level FlightAware UK
Tue 12:08:36 PM 49.8091 -8.4740 262° West 474 545 34,500  Level FlightAware UK
Tue 12:08:54 PM 49.8038 -8.5309 262° West 472 543 34,500  Level FlightAware UK
Tue 12:09:12 PM 49.7984 -8.5878 262° West 472 543 34,500  Level FlightAware UK
Tue 12:09:30 PM 49.7930 -8.6448 262° West 472 543 34,500  Level FlightAware UK
Tue 12:09:48 PM 49.7876 -8.7018 262° West 472 543 34,500  Level FlightAware UK
Tue 12:10:06 PM 49.7820 -8.7587 261° West 474 545 34,500  Level FlightAware UK
Tue 12:10:24 PM 49.7764 -8.8157 261° West 474 545 34,500  Level FlightAware UK
Tue 12:10:42 PM 49.7709 -8.8726 261° West 474 545 34,500  Level FlightAware UK
Tue 12:11:00 PM 49.7653 -8.9295 261° West 474 545 34,500  Level FlightAware UK
Tue 12:11:18 PM 49.7596 -8.9863 261° West 474 545 34,500 43 Level FlightAware UK
Tue 12:13:00 PM 49.8014 -9.2434 284° West  Level Estimated
Tue 12:20:00 PM 49.9888 -10.4486 284° West  Level Estimated
Tue 12:21:00 PM 50.0145 -10.6215 283° West  Level Estimated
Tue 12:22:00 PM 50.0400 -10.7946 283° West  Level Estimated
Tue 12:23:00 PM 50.0653 -10.9679 283° West  Level Estimated
Tue 12:24:00 PM 50.0902 -11.1414 283° West  Level Estimated
Tue 12:25:00 PM 50.1149 -11.3151 283° West  Level Estimated
Tue 12:26:00 PM 50.1394 -11.4889 282° West  Level Estimated
Tue 12:27:00 PM 50.1636 -11.6629 282° West  Level Estimated
Tue 12:28:00 PM 50.1875 -11.8371 282° West  Level Estimated
Tue 12:29:00 PM 50.2112 -12.0115 282° West  Level Estimated
Tue 12:30:00 PM 50.2346 -12.1860 282° West  Level Estimated
Tue 12:31:00 PM 50.2577 -12.3607 282° West  Level Estimated
Tue 12:32:00 PM 50.2806 -12.5356 282° West  Level Estimated
Tue 12:33:00 PM 50.3032 -12.7107 282° West  Level Estimated
Tue 12:34:00 PM 50.3256 -12.8859 281° West  Level Estimated
Tue 12:35:00 PM 50.3477 -13.0612 281° West  Level Estimated
Tue 12:36:00 PM 50.3695 -13.2368 281° West  Level Estimated
Tue 12:37:00 PM 50.3911 -13.4125 281° West  Level Estimated
Tue 12:38:00 PM 50.4124 -13.5883 281° West  Level Estimated
Tue 12:39:00 PM 50.4335 -13.7643 281° West  Level Estimated
Tue 12:40:00 PM 50.4542 -13.9405 281° West  Level Estimated
Tue 12:41:00 PM 50.4747 -14.1168 280° West  Level Estimated
Tue 12:42:00 PM 50.4950 -14.2933 280° West  Level Estimated
Tue 12:43:00 PM 50.5149 -14.4699 280° West  Level Estimated
Tue 12:44:00 PM 50.5347 -14.6467 280° West  Level Estimated
Tue 12:45:00 PM 50.5541 -14.8236 280° West  Level Estimated
Tue 12:46:00 PM 50.5733 -15.0007 280° West  Level Estimated
Tue 12:47:00 PM 50.5922 -15.1779 280° West  Level Estimated
Tue 12:48:00 PM 50.6108 -15.3552 279° West  Level Estimated
Tue 12:49:00 PM 50.6290 -15.5312 279° West  Level Estimated
Tue 12:50:00 PM 50.6469 -15.7073 279° West  Level Estimated
Tue 12:51:00 PM 50.6646 -15.8835 279° West  Level Estimated
Tue 12:52:00 PM 50.6820 -16.0599 279° West  Level Estimated
Tue 12:53:00 PM 50.6992 -16.2364 279° West  Level Estimated
Tue 12:54:00 PM 50.7161 -16.4130 279° West  Level Estimated
Tue 12:55:00 PM 50.7327 -16.5897 279° West  Level Estimated
Tue 12:56:00 PM 50.7490 -16.7666 278° West  Level Estimated
Tue 12:57:00 PM 50.7651 -16.9436 278° West  Level Estimated
Tue 12:58:00 PM 50.7809 -17.1207 278° West  Level Estimated
Tue 12:59:00 PM 50.7974 -17.3085 278° West  Level Estimated
Tue 01:00:00 PM 50.8135 -17.4964 278° West  Level Estimated
Tue 01:01:00 PM 50.8293 -17.6844 278° West  Level Estimated
Tue 01:02:00 PM 50.8449 -17.8725 278° West  Level Estimated
Tue 01:03:00 PM 50.8601 -18.0608 277° West  Level Estimated
Tue 01:04:00 PM 50.8751 -18.2492 277° West  Level Estimated
Tue 01:05:00 PM 50.8897 -18.4377 277° West  Level Estimated
Tue 01:06:00 PM 50.9040 -18.6264 277° West  Level Estimated
Tue 01:07:00 PM 50.9181 -18.8151 277° West  Level Estimated
Tue 01:08:00 PM 50.9318 -19.0040 277° West  Level Estimated
Tue 01:09:00 PM 50.9452 -19.1929 277° West  Level Estimated
Tue 01:09:32 PM 49.0000 -20.0000 274° West 453 521 37,000  Level ETMS Enhanced Traffic Management System
Tue 01:10:00 PM 50.9584 -19.3820 276° West  Level Estimated
Tue 01:11:00 PM 50.9712 -19.5712 276° West  Level Estimated
Tue 01:12:00 PM 50.9837 -19.7605 276° West  Level Estimated
Tue 01:13:00 PM 50.9959 -19.9498 276° West  Level Estimated
Tue 01:14:00 PM 51.0078 -20.1393 276° West  Level Estimated
Tue 01:15:00 PM 49.0441 -21.1516 273° West 453 521 37,000  Level FlightAware Transoceanic
Tue 01:16:00 PM 49.0504 -21.3437 273° West 453 521 37,000  Level FlightAware Transoceanic
Tue 01:17:00 PM 49.0563 -21.5359 273° West 453 521 37,000  Level FlightAware Transoceanic
Tue 01:18:00 PM 49.0619 -21.7281 272° West 453 521 37,000  Level FlightAware Transoceanic
Tue 01:19:00 PM 49.0672 -21.9203 272° West 453 521 37,000  Level FlightAware Transoceanic
Tue 01:20:00 PM 49.0721 -22.1126 272° West 453 521 37,000  Level FlightAware Transoceanic
Tue 01:21:00 PM 49.0768 -22.3049 272° West 453 521 37,000  Level FlightAware Transoceanic
Tue 01:22:00 PM 49.0811 -22.4973 272° West 453 521 37,000  Level FlightAware Transoceanic
Tue 01:23:00 PM 49.0851 -22.6897 272° West 453 521 37,000  Level FlightAware Transoceanic
Tue 01:24:00 PM 49.0887 -22.8821 272° West 453 521 37,000  Level FlightAware Transoceanic
Tue 01:25:00 PM 49.0921 -23.0745 271° West 453 521 37,000  Level FlightAware Transoceanic
Tue 01:26:00 PM 49.0952 -23.2670 271° West 453 521 37,000  Level FlightAware Transoceanic
Tue 01:27:00 PM 49.0979 -23.4595 271° West 453 521 37,000  Level FlightAware Transoceanic
Tue 01:28:00 PM 49.1003 -23.6520 271° West 453 521 37,000  Level FlightAware Transoceanic
Tue 01:29:00 PM 49.1024 -23.8446 271° West 453 521 37,000  Level FlightAware Transoceanic
Tue 01:30:00 PM 49.1041 -24.0371 271° West 453 521 37,000  Level FlightAware Transoceanic
Tue 01:31:00 PM 49.1056 -24.2297 271° West 453 521 37,000  Level FlightAware Transoceanic
Tue 01:32:00 PM 49.1067 -24.4223 270° West 453 521 37,000  Level FlightAware Transoceanic
Tue 01:33:00 PM 49.1075 -24.6148 270° West 453 521 37,000  Level FlightAware Transoceanic
Tue 01:34:00 PM 49.1080 -24.8074 270° West 453 521 37,000  Level FlightAware Transoceanic
Tue 01:35:00 PM 49.1081 -25.0000 270° West 453 521 37,000  Level FlightAware Transoceanic
Tue 01:36:00 PM 49.1080 -25.1926 270° West 453 521 37,000  Level FlightAware Transoceanic
Tue 01:37:00 PM 49.1075 -25.3852 270° West 453 521 37,000  Level FlightAware Transoceanic
Tue 01:37:00 PM 49.1333 -25.1167 269° West 443 510 37,000  Level ETMS Enhanced Traffic Management System
Tue 01:38:00 PM 49.1067 -25.5777 270° West 453 521 37,000  Level FlightAware Transoceanic
Tue 01:39:00 PM 49.1056 -25.7703 269° West 453 521 37,000  Level FlightAware Transoceanic
Tue 01:40:00 PM 49.1041 -25.9629 269° West 453 521 37,000  Level FlightAware Transoceanic
Tue 01:41:00 PM 49.1024 -26.1554 269° West 453 521 37,000  Level FlightAware Transoceanic
Tue 01:42:00 PM 49.1003 -26.3480 269° West 453 521 37,000  Level FlightAware Transoceanic
Tue 01:43:00 PM 49.1177 -26.4337 268° West 443 510 37,000  Level FlightAware Transoceanic
Tue 01:44:00 PM 49.1143 -26.6217 268° West 443 510 37,000  Level FlightAware Transoceanic
Tue 01:45:00 PM 49.1105 -26.8098 268° West 443 510 37,000  Level FlightAware Transoceanic
Tue 01:46:00 PM 49.1064 -26.9978 268° West 443 510 37,000  Level FlightAware Transoceanic
Tue 01:47:00 PM 49.1021 -27.1858 268° West 443 510 37,000  Level FlightAware Transoceanic
Tue 01:48:00 PM 49.0974 -27.3737 268° West 443 510 37,000  Level FlightAware Transoceanic
Tue 01:49:00 PM 49.0924 -27.5616 268° West 443 510 37,000  Level FlightAware Transoceanic
Tue 01:50:00 PM 49.0871 -27.7495 267° West 443 510 37,000  Level FlightAware Transoceanic
Tue 01:51:00 PM 49.0816 -27.9373 267° West 443 510 37,000  Level FlightAware Transoceanic
Tue 01:52:00 PM 49.0757 -28.1251 267° West 443 510 37,000  Level FlightAware Transoceanic
Tue 01:53:00 PM 49.0695 -28.3128 267° West 443 510 37,000  Level FlightAware Transoceanic
Tue 01:53:22 PM 49.0667 -28.1667 268° West 481 554 37,000  Level ETMS Enhanced Traffic Management System
Tue 01:54:00 PM 49.0630 -28.5005 267° West 443 510 37,000  Level FlightAware Transoceanic
Tue 01:55:00 PM 49.0561 -28.6881 267° West 443 510 37,000  Level FlightAware Transoceanic
Tue 01:56:00 PM 49.0490 -28.8757 267° West 443 510 37,000  Level FlightAware Transoceanic
Tue 01:57:00 PM 49.0416 -29.0632 266° West 443 510 37,000  Level FlightAware Transoceanic
Tue 01:58:00 PM 49.0339 -29.2507 266° West 443 510 37,000  Level FlightAware Transoceanic
Tue 01:59:00 PM 49.0255 -29.3895 267° West 481 554 37,000  Level FlightAware Transoceanic
Tue 02:00:00 PM 49.0173 -29.5930 266° West 481 554 37,000  Level FlightAware Transoceanic
Tue 02:01:00 PM 49.0088 -29.7966 266° West 481 554 37,000  Level FlightAware Transoceanic
Tue 02:02:00 PM 49.0121 -29.9792 272° West  Level Estimated
Tue 02:03:00 PM 49.0151 -30.1618 272° West  Level Estimated
Tue 02:04:00 PM 49.0178 -30.3445 271° West  Level Estimated
Tue 02:05:00 PM 49.0202 -30.5272 271° West  Level Estimated
Tue 02:06:00 PM 49.0224 -30.7099 271° West  Level Estimated
Tue 02:07:00 PM 49.0242 -30.8926 271° West  Level Estimated
Tue 02:08:00 PM 49.0258 -31.0753 271° West  Level Estimated
Tue 02:09:00 PM 49.0270 -31.2581 271° West  Level Estimated
Tue 02:10:00 PM 49.0280 -31.4408 271° West  Level Estimated
Tue 02:11:00 PM 49.0287 -31.6236 270° West  Level Estimated
Tue 02:12:00 PM 49.0291 -31.8063 270° West  Level Estimated
Tue 02:13:00 PM 49.0292 -31.9891 270° West  Level Estimated
Tue 02:14:00 PM 49.0290 -32.1719 270° West  Level Estimated
Tue 02:15:00 PM 49.0286 -32.3546 270° West  Level Estimated
Tue 02:16:00 PM 49.0278 -32.5374 270° West  Level Estimated
Tue 02:17:00 PM 49.0268 -32.7201 270° West  Level Estimated
Tue 02:18:00 PM 49.0255 -32.9029 269° West  Level Estimated
Tue 02:19:00 PM 49.0238 -33.0856 269° West  Level Estimated
Tue 02:20:00 PM 49.0219 -33.2683 269° West  Level Estimated
Tue 02:21:00 PM 49.0197 -33.4510 269° West  Level Estimated
Tue 02:22:00 PM 49.0172 -33.6337 269° West  Level Estimated
Tue 02:23:00 PM 49.0145 -33.8163 269° West  Level Estimated
Tue 02:24:00 PM 49.0114 -33.9990 269° West  Level Estimated
Tue 02:25:00 PM 49.0080 -34.1816 268° West  Level Estimated
Tue 02:26:00 PM 49.0044 -34.3642 268° West  Level Estimated
Tue 02:27:00 PM 49.0005 -34.5468 268° West  Level Estimated
Tue 02:28:00 PM 48.9963 -34.7293 268° West  Level Estimated
Tue 02:29:00 PM 48.9918 -34.9118 268° West  Level Estimated
Tue 02:30:00 PM 48.9870 -35.0943 268° West  Level Estimated
Tue 02:31:00 PM 48.9819 -35.2767 268° West  Level Estimated
Tue 02:32:00 PM 48.9765 -35.4591 268° West  Level Estimated
Tue 02:33:00 PM 48.9709 -35.6415 267° West  Level Estimated
Tue 02:34:00 PM 48.9649 -35.8238 267° West  Level Estimated
Tue 02:35:00 PM 48.9587 -36.0060 267° West  Level Estimated
Tue 02:36:00 PM 48.9522 -36.1883 267° West  Level Estimated
Tue 02:37:00 PM 48.9454 -36.3704 267° West  Level Estimated
Tue 02:38:00 PM 48.9383 -36.5526 267° West  Level Estimated
Tue 02:39:00 PM 48.9309 -36.7346 267° West  Level Estimated
Tue 02:40:00 PM 48.9232 -36.9166 266° West  Level Estimated
Tue 02:41:00 PM 48.9153 -37.0986 266° West  Level Estimated
Tue 02:42:00 PM 48.9071 -37.2805 266° West  Level Estimated
Tue 02:43:00 PM 48.8985 -37.4623 266° West  Level Estimated
Tue 02:44:00 PM 48.8897 -37.6441 266° West  Level Estimated
Tue 02:45:00 PM 48.8806 -37.8258 266° West  Level Estimated
Tue 02:46:00 PM 48.8713 -38.0075 266° West  Level Estimated
Tue 02:47:00 PM 48.8616 -38.1890 265° West  Level Estimated
Tue 02:48:00 PM 48.8517 -38.3705 265° West  Level Estimated
Tue 02:49:00 PM 48.8414 -38.5519 265° West  Level Estimated
Tue 02:50:00 PM 48.8309 -38.7333 265° West  Level Estimated
Tue 02:51:00 PM 48.8201 -38.9146 265° West  Level Estimated
Tue 02:52:00 PM 48.8090 -39.0958 265° West  Level Estimated
Tue 02:53:00 PM 48.7977 -39.2769 265° West  Level Estimated
Tue 02:54:00 PM 48.7860 -39.4579 264° West  Level Estimated
Tue 02:55:00 PM 48.7741 -39.6389 264° West  Level Estimated
Tue 02:56:00 PM 48.7618 -39.8197 264° West  Level Estimated
Tue 02:57:00 PM 48.7494 -40.0005 264° West  Level Estimated
Tue 02:58:00 PM 48.7366 -40.1812 264° West  Level Estimated
Tue 02:59:00 PM 48.7235 -40.3618 264° West  Level Estimated
Tue 03:00:00 PM 48.7102 -40.5423 264° West  Level Estimated
Tue 03:01:00 PM 48.6965 -40.7227 264° West  Level Estimated
Tue 03:02:00 PM 48.6826 -40.9030 263° West  Level Estimated
Tue 03:03:00 PM 48.6684 -41.0832 263° West  Level Estimated
Tue 03:04:00 PM 48.6539 -41.2633 263° West  Level Estimated
Tue 03:05:00 PM 48.6392 -41.4433 263° West  Level Estimated
Tue 03:06:00 PM 48.6242 -41.6231 263° West  Level Estimated
Tue 03:07:00 PM 48.6088 -41.8029 263° West  Level Estimated
Tue 03:08:00 PM 48.5933 -41.9826 263° West  Level Estimated
Tue 03:09:00 PM 48.5774 -42.1621 262° West  Level Estimated
Tue 03:10:00 PM 48.5612 -42.3416 262° West  Level Estimated
Tue 03:11:00 PM 48.5448 -42.5209 262° West  Level Estimated
Tue 03:12:00 PM 48.5281 -42.7001 262° West  Level Estimated
Tue 03:13:00 PM 48.5111 -42.8792 262° West  Level Estimated
Tue 03:14:00 PM 48.4938 -43.0582 262° West  Level Estimated
Tue 03:15:00 PM 48.4763 -43.2370 262° West  Level Estimated
Tue 03:16:00 PM 48.4585 -43.4157 262° West  Level Estimated
Tue 03:17:00 PM 48.4404 -43.5943 261° West  Level Estimated
Tue 03:18:00 PM 48.4220 -43.7728 261° West  Level Estimated
Tue 03:19:00 PM 48.4034 -43.9511 261° West  Level Estimated
Tue 03:20:00 PM 48.3844 -44.1293 261° West  Level Estimated
Tue 03:21:00 PM 48.3652 -44.3074 261° West  Level Estimated
Tue 03:22:00 PM 48.3458 -44.4854 261° West  Level Estimated
Tue 03:23:00 PM 48.3260 -44.6632 261° West  Level Estimated
Tue 03:24:00 PM 48.3060 -44.8408 260° West  Level Estimated
Tue 03:25:00 PM 48.2857 -45.0183 260° West  Level Estimated
Tue 03:26:00 PM 48.2651 -45.1957 260° West  Level Estimated
Tue 03:27:00 PM 48.2443 -45.3729 260° West  Level Estimated
Tue 03:28:00 PM 48.2232 -45.5500 260° West  Level Estimated
Tue 03:29:00 PM 48.2018 -45.7270 260° West  Level Estimated
Tue 03:30:00 PM 48.1801 -45.9038 260° West  Level Estimated
Tue 03:31:00 PM 48.1582 -46.0804 260° West  Level Estimated
Tue 03:32:00 PM 48.1360 -46.2569 259° West  Level Estimated
Tue 03:33:00 PM 48.1135 -46.4332 259° West  Level Estimated
Tue 03:34:00 PM 48.0908 -46.6094 259° West  Level Estimated
Tue 03:35:00 PM 48.0678 -46.7854 259° West  Level Estimated
Tue 03:36:00 PM 48.0445 -46.9613 259° West  Level Estimated
Tue 03:37:00 PM 48.0210 -47.1370 259° West  Level Estimated
Tue 03:38:00 PM 47.9972 -47.3126 259° West  Level Estimated
Tue 03:39:00 PM 47.9731 -47.4879 258° West  Level Estimated
Tue 03:40:00 PM 47.9488 -47.6632 258° West  Level Estimated
Tue 03:41:00 PM 47.9242 -47.8382 258° West  Level Estimated
Tue 03:42:00 PM 47.8993 -48.0131 258° West  Level Estimated
Tue 03:43:00 PM 47.8741 -48.1878 258° West  Level Estimated
Tue 03:44:00 PM 47.8487 -48.3624 258° West  Level Estimated
Tue 03:45:00 PM 47.8231 -48.5368 258° West  Level Estimated
Tue 03:46:00 PM 47.7971 -48.7110 258° West  Level Estimated
Tue 03:47:00 PM 47.7709 -48.8850 257° West  Level Estimated
Tue 03:48:00 PM 47.7445 -49.0588 257° West  Level Estimated
Tue 03:49:00 PM 47.7178 -49.2325 257° West  Level Estimated
Tue 03:50:00 PM 47.6908 -49.4060 257° West  Level Estimated
Tue 03:50:15 PM 46.9500 -50.3000 256° West 460 529 37,000  Level Gander Center
Tue 03:51:00 PM 47.6635 -49.5793 257° West  Level Estimated
Tue 03:51:15 PM 46.9333 -50.4833 262° West 460 529 37,000  Level Gander Center
Tue 03:52:00 PM 47.6361 -49.7518 257° West  Level Estimated
Tue 03:52:15 PM 46.9000 -50.6500 254° West 460 529 37,000  Level Gander Center
Tue 03:53:00 PM 47.6085 -49.9241 257° West  Level Estimated
Tue 03:53:15 PM 46.8667 -50.8333 255° West 460 529 38,000  Level Gander Center
Tue 03:53:57 PM 46.8500 -50.9667 260° West 460 529 38,000  Level Moncton Center
Tue 03:54:00 PM 47.5805 -50.0963 257° West  Level Estimated
Tue 03:54:57 PM 46.8167 -51.1500 255° West 470 541 38,000  Level Moncton Center
Tue 03:55:00 PM 47.5524 -50.2683 256° West  Level Estimated
Tue 03:55:23 PM 46.8167 -51.2333 270° West 470 541 38,000  Level Gander Center
Tue 03:56:23 PM 46.7833 -51.4167 255° West 470 541 38,000  Level Gander Center
Tue 03:56:57 PM 46.7667 -51.5333 258° West 470 541 38,000  Level Moncton Center
Tue 03:57:57 PM 46.7500 -51.7167 263° West 470 541 38,000  Level Moncton Center
Tue 03:58:23 PM 46.7333 -51.7833 250° West 470 541 38,000  Level Gander Center
Tue 03:58:57 PM 46.7000 -51.9000 247° West 470 541 38,000  Level Moncton Center
Tue 03:59:57 PM 46.6833 -52.0667 262° West 470 541 38,000  Level Moncton Center
Tue 04:00:57 PM 46.6667 -52.2667 263° West 470 541 38,000  Level Moncton Center
Tue 04:01:57 PM 46.6333 -52.4500 255° West 470 541 38,000  Level Moncton Center
Tue 04:02:23 PM 46.6167 -52.5167 250° West 470 541 38,000  Level Gander Center
Tue 04:02:57 PM 46.6000 -52.6333 258° West 470 541 38,000  Level Moncton Center
Tue 04:03:57 PM 46.5667 -52.8000 254° West 470 541 38,000  Level Moncton Center
Tue 04:04:23 PM 46.5667 -52.9000 270° West 470 541 38,000  Level Gander Center
Tue 04:05:23 PM 46.5167 -53.0667 246° West 470 541 38,000  Level Gander Center
Tue 04:05:57 PM 46.5000 -53.1833 258° West 460 529 38,000  Level Moncton Center
Tue 04:06:57 PM 46.4667 -53.3667 255° West 470 541 38,000  Level Moncton Center
Tue 04:07:23 PM 46.4500 -53.4500 254° West 470 541 38,000  Level Gander Center
Tue 04:08:23 PM 46.4333 -53.6167 262° West 470 541 38,000  Level Gander Center
Tue 04:08:57 PM 46.4000 -53.7167 244° Southwest 470 541 38,000  Level Moncton Center
Tue 04:09:57 PM 46.3667 -53.9000 255° West 470 541 38,000  Level Moncton Center
Tue 04:10:57 PM 46.3333 -54.1000 256° West 470 541 38,000  Level Moncton Center
Tue 04:11:23 PM 46.3333 -54.1667 270° West 470 541 38,000  Level Gander Center
Tue 04:12:23 PM 46.3000 -54.3667 257° West 470 541 38,000  Level Gander Center
Tue 04:12:57 PM 46.2667 -54.4500 240° Southwest 470 541 38,000  Level Moncton Center
Tue 04:13:57 PM 46.2333 -54.6500 257° West 480 552 38,000  Level Moncton Center
Tue 04:14:57 PM 46.2000 -54.8333 255° West 470 541 38,000  Level Moncton Center
Tue 04:15:57 PM 46.1667 -55.0167 255° West 470 541 38,000  Level Moncton Center
Tue 04:16:57 PM 46.1333 -55.1833 254° West 470 541 38,000  Level Moncton Center
Tue 04:17:57 PM 46.1000 -55.3833 257° West 470 541 38,000  Level Moncton Center
Tue 04:18:23 PM 46.0833 -55.4500 250° West 470 541 38,000  Level Gander Center
Tue 04:19:23 PM 46.0500 -55.6333 255° West 470 541 38,000  Level Gander Center
Tue 04:19:57 PM 46.0500 -55.7333 270° West 460 529 38,000  Level Moncton Center
Tue 04:20:57 PM 46.0000 -55.9000 247° West 480 552 38,000  Level Moncton Center
Tue 04:21:57 PM 45.9500 -56.1167 252° West 470 541 38,000  Level Moncton Center
Tue 04:22:57 PM 45.9333 -56.2833 262° West 470 541 38,000  Level Moncton Center
Tue 04:23:57 PM 45.9000 -56.4500 254° West 470 541 38,000  Level Moncton Center
Tue 04:24:57 PM 45.8500 -56.6333 249° West 470 541 38,000  Level Moncton Center
Tue 04:25:57 PM 45.8167 -56.8000 254° West 470 541 38,000  Level Moncton Center
Tue 04:26:15 PM 45.8000 -56.8833 254° West 470 541 38,000  Level Gander Center
Tue 04:27:15 PM 45.7833 -57.0500 262° West 470 541 38,000  Level Gander Center
Tue 04:27:57 PM 45.7500 -57.1833 250° West 470 541 38,000  Level Moncton Center
Tue 04:28:15 PM 45.7333 -57.2500 250° West 470 541 38,000  Level Gander Center
Tue 04:29:15 PM 45.7000 -57.4167 254° West 470 541 38,000  Level Gander Center
Tue 04:29:57 PM 45.6667 -57.5500 250° West 470 541 38,000  Level Moncton Center
Tue 04:30:57 PM 45.6333 -57.7167 254° West 470 541 38,000  Level Moncton Center
Tue 04:31:57 PM 45.5833 -57.8833 247° West 470 541 38,000  Level Moncton Center
Tue 04:32:57 PM 45.5500 -58.0833 257° West 470 541 38,000  Level Moncton Center
Tue 04:33:15 PM 45.5333 -58.1333 245° Southwest 470 541 38,000  Level Gander Center
Tue 04:34:15 PM 45.5000 -58.3000 254° West 480 552 38,000  Level Gander Center
Tue 04:34:57 PM 45.4667 -58.4333 250° West 470 541 38,000  Level Moncton Center
Tue 04:35:57 PM 45.4333 -58.6333 257° West 480 552 38,000  Level Moncton Center
Tue 04:36:57 PM 45.3833 -58.8000 247° West 480 552 38,000  Level Moncton Center
Tue 04:37:57 PM 45.3500 -58.9667 254° West 480 552 38,000  Level Moncton Center
Tue 04:38:57 PM 45.3000 -59.1333 247° West 480 552 38,000  Level Moncton Center
Tue 04:40:15 PM 45.2500 -59.3833 254° West 470 541 38,000  Level Gander Center
Tue 04:41:15 PM 45.2167 -59.5500 254° West 470 541 38,000  Level Gander Center
Tue 04:42:15 PM 45.1667 -59.7500 251° West 470 541 38,000  Level Gander Center
Tue 04:43:15 PM 45.1167 -59.9167 247° West 470 541 38,000  Level Gander Center
Tue 04:43:57 PM 45.0833 -60.0333 248° West 480 552 38,000  Level Moncton Center
Tue 04:44:57 PM 45.0500 -60.2333 257° West 480 552 38,000  Level Moncton Center
Tue 04:45:57 PM 45.0000 -60.4000 247° West 480 552 38,000  Level Moncton Center
Tue 04:46:15 PM 44.9833 -60.4500 245° Southwest 480 552 38,000  Level Gander Center
Tue 04:47:15 PM 44.9333 -60.6167 247° West 480 552 38,000  Level Gander Center
Tue 04:47:57 PM 44.9167 -60.7667 261° West 480 552 38,000  Level Moncton Center
Tue 04:48:57 PM 44.8667 -60.9333 247° West 480 552 38,000  Level Moncton Center
Tue 04:49:57 PM 44.8167 -61.1000 247° West 480 552 38,000  Level Moncton Center
Tue 04:50:57 PM 44.7833 -61.2833 256° West 480 552 38,000  Level Moncton Center
Tue 04:51:57 PM 44.7333 -61.4500 247° West 480 552 38,000  Level Moncton Center
Tue 04:52:57 PM 44.6833 -61.6500 251° West 480 552 38,000  Level Moncton Center
Tue 04:53:15 PM 44.6833 -61.7000 270° West 480 552 38,000  Level Gander Center
Tue 04:54:15 PM 44.6333 -61.8667 247° West 490 564 38,000  Level Gander Center
Tue 04:54:57 PM 44.6000 -62.0000 251° West 480 552 38,000  Level Moncton Center
Tue 04:55:57 PM 44.5500 -62.1667 247° West 480 552 38,000  Level Moncton Center
Tue 04:56:57 PM 44.5000 -62.3333 247° West 480 552 38,000  Level Moncton Center
Tue 04:57:57 PM 44.4500 -62.5167 249° West 480 552 38,000  Level Moncton Center
Tue 04:58:57 PM 44.4000 -62.6833 247° West 480 552 38,000  Level Moncton Center
Tue 04:59:57 PM 44.3667 -62.8500 254° West 480 552 38,000  Level Moncton Center
Tue 05:00:57 PM 44.3167 -63.0500 251° West 480 552 38,000  Level Moncton Center
Tue 05:01:57 PM 44.2667 -63.2000 245° Southwest 480 552 38,000  Level Moncton Center
Tue 05:02:57 PM 44.2167 -63.4000 251° West 480 552 38,000  Level Moncton Center
Tue 05:03:57 PM 44.1667 -63.5500 245° Southwest 480 552 38,000  Level Moncton Center
Tue 05:04:57 PM 44.1167 -63.7167 247° West 480 552 38,000  Level Moncton Center
Tue 05:05:57 PM 44.0667 -63.9167 251° West 480 552 38,000  Level Moncton Center
Tue 05:06:57 PM 44.0167 -64.0667 245° Southwest 480 552 38,000  Level Moncton Center
Tue 05:07:15 PM 44.0000 -64.1333 251° West 480 552 38,000  Level Gander Center
Tue 05:07:57 PM 43.9667 -64.2500 248° West 480 552 38,000  Level Moncton Center
Tue 05:08:57 PM 43.9167 -64.4167 247° West 480 552 38,000  Level Moncton Center
Tue 05:09:57 PM 43.8667 -64.6000 249° West 480 552 38,000  Level Moncton Center
Tue 05:10:57 PM 43.8167 -64.7667 247° West 480 552 38,000  Level Moncton Center
Tue 05:11:57 PM 43.7667 -64.9333 247° West 480 552 38,000  Level Moncton Center
Tue 05:12:57 PM 43.7167 -65.1167 249° West 480 552 38,000  Level Moncton Center
Tue 05:13:57 PM 43.6667 -65.2667 245° Southwest 480 552 38,000  Level Moncton Center
Tue 05:14:57 PM 43.6167 -65.4667 251° West 480 552 38,000  Level Moncton Center
Tue 05:15:57 PM 43.5667 -65.6167 245° Southwest 490 564 38,000  Level Moncton Center
Tue 05:16:57 PM 43.5167 -65.8000 249° West 490 564 38,000  Level Moncton Center
Tue 05:17:57 PM 43.4500 -65.9667 241° Southwest 490 564 38,000  Level Moncton Center
Tue 05:18:57 PM 43.4000 -66.1500 249° West 490 564 38,000  Level Moncton Center
Tue 05:19:57 PM 43.3500 -66.3333 249° West 490 564 38,000  Level Moncton Center
Tue 05:20:57 PM 43.3000 -66.4833 245° Southwest 490 564 38,000  Level Moncton Center
Tue 05:21:57 PM 43.2500 -66.6667 250° West 490 564 38,000  Level Moncton Center
Tue 05:22:57 PM 43.1833 -66.8333 241° Southwest 490 564 38,000 -59 Level Moncton Center
Tue 05:23:38 PM 43.1683 -66.9414 259° West 494 568 37,900  Descending Boston Center
Tue 05:24:38 PM 43.1156 -67.1083 247° West 494 568 38,000 76 Climbing Boston Center
Tue 05:24:57 PM 43.0833 -67.1667 233° Southwest 490 564 38,000  Level Moncton Center
Tue 05:25:57 PM 43.0333 -67.3500 250° West 490 564 38,000  Level Moncton Center
Tue 05:26:38 PM 43.0125 -67.4556 255° West 494 568 38,000 -59 Level Boston Center
Tue 05:27:38 PM 42.9572 -67.6247 246° West 489 563 37,900 -76 Descending Boston Center
Tue 05:27:57 PM 42.9167 -67.6833 227° Southwest 480 552 37,900 76 Level Moncton Center
Tue 05:28:57 PM 42.8833 -67.8667 256° West 490 564 38,000  Climbing Moncton Center
Tue 05:29:57 PM 42.8167 -68.0167 239° Southwest 490 564 37,900 -50 Descending Moncton Center
Tue 05:30:57 PM 42.7667 -68.2000 250° West 490 564 37,900  Level Moncton Center
Tue 05:31:57 PM 42.7167 -68.3667 248° West 490 564 37,900  Level Moncton Center
Tue 05:32:57 PM 42.6500 -68.5333 242° Southwest 490 564 37,900 59 Level Moncton Center
Tue 05:33:38 PM 42.6314 -68.6608 259° West 488 562 38,000  Climbing Boston Center
Tue 05:33:57 PM 42.6000 -68.7000 223° Southwest 500 575 37,900  Descending Moncton Center
Tue 05:34:57 PM 42.5333 -68.8833 244° Southwest 500 575 38,000 59 Climbing Moncton Center
Tue 05:35:38 PM 42.5233 -68.9972 263° West 488 562 38,000  Level Boston Center
Tue 05:36:38 PM 42.4714 -69.1494 245° Southwest 488 562 38,000  Level Boston Center
Tue 05:37:38 PM 42.4178 -69.3125 246° West 488 562 38,000  Level Boston Center
Tue 05:38:38 PM 42.3600 -69.4869 246° West 494 568 38,000  Level Boston Center
Tue 05:39:38 PM 42.3058 -69.6522 246° West 494 568 38,000  Level Boston Center
Tue 05:40:38 PM 42.2475 -69.8372 247° West 488 562 38,000  Level Boston Center
Tue 05:41:38 PM 42.1989 -69.9906 247° West 493 567 38,000  Level Boston Center
Tue 05:42:38 PM 42.1378 -70.1583 244° Southwest 498 573 38,000  Level Boston Center
Tue 05:43:38 PM 42.0783 -70.3256 244° Southwest 498 573 38,000  Level Boston Center
Tue 05:44:38 PM 42.0061 -70.4817 238° Southwest 498 573 38,000  Level Boston Center
Tue 05:45:38 PM 41.9294 -70.6319 236° Southwest 498 573 38,000  Level Boston Center
Tue 05:46:38 PM 41.8547 -70.7844 237° Southwest 498 573 38,000 -50 Level Boston Center
Tue 05:47:38 PM 41.7819 -70.9422 238° Southwest 498 573 37,900 -200 Descending Boston Center
Tue 05:48:38 PM 41.7067 -71.0942 236° Southwest 498 573 37,600 -1,300 Descending Boston Center
Tue 05:49:38 PM 41.6314 -71.2431 236° Southwest 493 567 35,300 -2,650 Descending Boston Center
Tue 05:50:38 PM 41.5556 -71.3942 236° Southwest 493 567 32,300 -2,600 Descending Boston Center
Tue 05:51:38 PM 41.4819 -71.5394 236° Southwest 488 562 30,100 -2,200 Descending Boston Center
Tue 05:52:38 PM 41.4078 -71.6761 234° Southwest 477 549 27,900 -2,150 Descending Boston Center
Tue 05:53:38 PM 41.3400 -71.8097 236° Southwest 458 527 25,800 -1,950 Descending Boston Center
Tue 05:54:38 PM 41.2761 -71.9431 238° Southwest 445 512 24,000 -1,550 Descending Boston Center
Tue 05:55:38 PM 41.2181 -72.0869 242° Southwest 440 506 22,700 -1,950 Descending Boston Center
Tue 05:56:38 PM 41.1622 -72.2250 242° Southwest 440 506 20,100 -2,300 Descending Boston Center
Tue 05:57:38 PM 41.1019 -72.3739 242° Southwest 430 495 18,100 -2,050 Descending Boston Center
Tue 05:58:38 PM 41.0500 -72.5033 242° Southwest 418 481 16,000 -2,000 Descending Boston Center
Tue 05:59:38 PM 41.0039 -72.6189 242° Southwest 386 444 14,100 -1,409 Descending Boston Center
Tue 06:01:07 PM 40.9500 -72.7667 244° Southwest 307 353 12,500 -846 Descending New York TRACON
Tue 06:02:07 PM 40.8833 -72.8500 223° Southwest 309 356 12,000 -500 Descending New York TRACON
Tue 06:03:07 PM 40.8167 -72.9167 217° Southwest 304 350 11,500 -800 Descending New York TRACON
Tue 06:04:07 PM 40.7500 -72.9667 210° Southwest 301 346 10,400 -1,100 Descending New York TRACON
Tue 06:05:07 PM 40.7000 -73.0500 232° Southwest 298 343 9,300 -1,050 Descending New York TRACON
Tue 06:06:07 PM 40.6500 -73.1500 237° Southwest 287 330 8,300 -1,050 Descending New York TRACON
Tue 06:07:07 PM 40.6000 -73.2333 232° Southwest 286 329 7,200 -1,105 Descending New York TRACON
Tue 06:08:01 PM 40.5667 -73.3167 242° Southwest 285 328 6,200 -1,050 Descending New York TRACON
Tue 06:09:07 PM 40.5167 -73.4000 232° Southwest 283 326 5,100 -1,000 Descending New York TRACON
Tue 06:10:07 PM 40.4833 -73.4833 242° Southwest 277 319 4,100 -1,050 Descending New York TRACON
Tue 06:11:07 PM 40.4167 -73.5333 210° Southwest 268 308 3,000 -550 Descending New York TRACON
Tue 06:12:07 PM 40.3500 -73.5833 210° Southwest 271 312 3,000  Level New York TRACON
Tue 06:13:07 PM 40.2833 -73.6333 210° Southwest 239 275 3,000  Level New York TRACON
Tue 06:14:13 PM 40.2333 -73.6833 217° Southwest 236 272 3,000  Level New York TRACON
Tue 06:15:07 PM 40.2500 -73.7500 288° West 231 266 3,000  Level New York TRACON
Tue 06:16:13 PM 40.2833 -73.8167 303° West 225 259 3,000  Level New York TRACON
Tue 06:17:07 PM 40.3333 -73.8833 315° West 225 259 3,000  Level New York TRACON
Tue 06:18:07 PM 40.3833 -73.9333 323° Northwest 228 262 3,000  Level New York TRACON
Tue 06:19:07 PM 40.4333 -73.9500 346° North 210 242 3,000  Level New York TRACON
Tue 06:20:07 PM 40.4833 -73.9667 346° North 179 206 3,000  Level New York TRACON
Tue 06:21:07 PM 40.5333 -73.9667 360° North 171 197 3,000 -250 Level New York TRACON
Tue 06:22:07 PM 40.5667 -73.9333 37° Northeast 163 188 2,500 -500 Descending New York TRACON

Login

Don't have an account? Register now (free) for customized features, flight alerts, and more!